createdAt,value
2022-09-28T00:01:05.252Z,12.13
2022-09-28T00:04:46.270Z,12.15
2022-09-28T00:08:34.122Z,12.16
2022-09-28T00:12:22.322Z,12.19
2022-09-28T00:15:49.452Z,12.23
2022-09-28T00:19:39.849Z,12.25
2022-09-28T00:23:12.686Z,12.26
2022-09-28T00:27:02.108Z,12.26
2022-09-28T00:30:49.924Z,12.26
2022-09-28T00:34:37.580Z,12.26
2022-09-28T00:38:04.912Z,12.24
2022-09-28T00:41:52.512Z,12.23
2022-09-28T00:45:40.372Z,12.22
2022-09-28T00:49:19.072Z,12.19
2022-09-28T00:53:06.855Z,12.20
2022-09-28T00:56:39.224Z,12.22
2022-09-28T01:00:27.238Z,12.22
2022-09-28T01:04:14.362Z,12.22
2022-09-28T01:08:03.563Z,12.22
2022-09-28T01:11:50.417Z,12.21
2022-09-28T01:15:38.109Z,12.22
2022-09-28T01:19:31.677Z,12.22
2022-09-28T01:23:35.264Z,12.20
2022-09-28T01:27:08.220Z,12.18
2022-09-28T01:30:56.005Z,12.13
2022-09-28T01:33:54.453Z,12.09
2022-09-28T01:37:44.484Z,12.07
2022-09-28T01:41:18.199Z,12.10
2022-09-28T01:44:53.039Z,12.11
2022-09-28T01:48:14.458Z,12.12
2022-09-28T01:51:22.717Z,12.11
2022-09-28T01:55:13.493Z,12.11
2022-09-28T01:59:03.081Z,12.10
2022-09-28T02:02:55.914Z,12.03
2022-09-28T02:06:23.489Z,11.98
2022-09-28T02:10:13.251Z,11.97
2022-09-28T02:14:15.725Z,11.95
2022-09-28T02:18:03.892Z,11.94
2022-09-28T02:22:03.476Z,11.95
2022-09-28T02:25:54.365Z,11.95
2022-09-28T02:28:49.223Z,11.95
2022-09-28T02:31:16.344Z,11.96
2022-09-28T02:33:50.310Z,11.96
2022-09-28T02:36:29.435Z,11.95
2022-09-28T02:39:02.064Z,11.92
2022-09-28T02:42:33.421Z,11.89
2022-09-28T02:46:30.757Z,11.86
2022-09-28T02:50:22.969Z,11.83
2022-09-28T02:54:13.412Z,11.83
2022-09-28T02:57:59.969Z,11.80
2022-09-28T03:01:22.594Z,11.76
2022-09-28T03:04:15.056Z,11.69
2022-09-28T03:07:07.301Z,11.61
2022-09-28T03:09:43.856Z,11.54
2022-09-28T03:12:16.199Z,11.48
2022-09-28T03:14:44.547Z,11.43
2022-09-28T03:17:11.516Z,11.38
2022-09-28T03:19:38.867Z,11.35
2022-09-28T03:22:11.457Z,11.35
2022-09-28T03:24:38.868Z,11.35
2022-09-28T03:27:07.697Z,11.35
2022-09-28T03:29:35.336Z,11.34
2022-09-28T03:32:05.845Z,11.36
2022-09-28T03:34:32.885Z,11.36
2022-09-28T03:36:59.997Z,11.38
2022-09-28T03:39:26.983Z,11.38
2022-09-28T03:41:54.027Z,11.39
2022-09-28T03:44:21.295Z,11.42
2022-09-28T03:46:50.664Z,11.45
2022-09-28T03:49:17.717Z,11.48
2022-09-28T03:51:47.226Z,11.51
2022-09-28T03:54:17.076Z,11.55
2022-09-28T03:56:44.299Z,11.59
2022-09-28T03:59:15.128Z,11.62
2022-09-28T04:01:44.868Z,11.66
2022-09-28T04:04:15.371Z,11.68
2022-09-28T04:06:42.352Z,11.71
2022-09-28T04:09:10.284Z,11.74
2022-09-28T04:12:02.325Z,11.76
2022-09-28T04:14:30.229Z,11.76
2022-09-28T04:16:57.162Z,11.74
2022-09-28T04:19:26.415Z,11.73
2022-09-28T04:22:12.119Z,11.74
2022-09-28T04:24:43.152Z,11.75
2022-09-28T04:27:28.327Z,11.73
2022-09-28T04:29:55.638Z,11.73
2022-09-28T04:32:23.203Z,11.71
2022-09-28T04:35:14.248Z,11.71
2022-09-28T04:51:04.309Z,11.86
2022-09-28T04:53:51.412Z,11.90
2022-09-28T04:56:50.318Z,11.94
2022-09-28T04:59:23.661Z,11.99
2022-09-28T05:02:11.470Z,12.04
2022-09-28T05:05:19.701Z,12.12
2022-09-28T05:08:06.136Z,12.18
2022-09-28T05:10:36.034Z,12.22
2022-09-28T05:13:13.253Z,12.28
2022-09-28T05:15:42.389Z,12.31
2022-09-28T05:18:22.084Z,12.33
2022-09-28T05:21:13.256Z,12.41
2022-09-28T05:23:45.699Z,12.47
2022-09-28T05:26:13.321Z,12.52
2022-09-28T05:29:07.538Z,12.59
2022-09-28T05:35:23.509Z,12.80
2022-09-28T05:45:54.262Z,13.07
2022-09-28T05:48:59.853Z,13.16
2022-09-28T05:55:28.767Z,13.50
2022-09-28T05:57:59.813Z,13.76
2022-09-28T06:09:55.278Z,14.88
2022-09-28T06:55:21.476Z,21.83
2022-09-28T06:58:54.173Z,22.28
2022-09-28T07:01:22.002Z,22.85
2022-09-28T07:04:21.141Z,23.42
2022-09-28T07:50:38.232Z,27.04
2022-09-28T07:54:14.521Z,27.14
2022-09-28T07:57:07.905Z,27.49
2022-09-28T08:00:28.916Z,27.79
2022-09-28T08:03:02.131Z,27.93
2022-09-28T08:05:51.811Z,28.51
2022-09-28T08:08:30.703Z,28.67
2022-09-28T08:11:23.438Z,28.67
2022-09-28T08:14:37.424Z,28.79
2022-09-28T08:18:23.701Z,28.86
2022-09-28T08:21:12.164Z,29.18
2022-09-28T08:24:02.561Z,29.12
2022-09-28T08:26:32.864Z,29.27
2022-09-28T08:29:33.432Z,29.42
2022-09-28T08:32:26.119Z,29.70
2022-09-28T08:36:20.021Z,29.86
2022-09-28T08:39:17.893Z,30.01
2022-09-28T08:42:45.061Z,30.04
2022-09-28T08:47:15.875Z,30.35
2022-09-28T08:50:37.859Z,30.71
2022-09-28T08:53:35.353Z,31.08
2022-09-28T08:57:09.893Z,31.22
2022-09-28T08:59:56.794Z,31.27
2022-09-28T09:06:45.600Z,31.94
2022-09-28T09:10:19.711Z,32.07
2022-09-28T09:13:41.298Z,32.35
2022-09-28T09:16:40.437Z,32.39
2022-09-28T09:19:46.707Z,32.54
2022-09-28T09:23:24.967Z,32.18
2022-09-28T09:30:17.493Z,31.16
2022-09-28T09:33:24.922Z,30.84
2022-09-28T10:30:44.448Z,29.38
2022-09-28T10:33:33.869Z,28.89
2022-09-28T10:36:07.196Z,28.65
2022-09-28T10:38:35.649Z,28.44
2022-09-28T10:41:16.723Z,28.70
2022-09-28T10:44:08.372Z,28.72
2022-09-28T10:46:42.954Z,28.86
2022-09-28T10:49:18.770Z,28.83
2022-09-28T10:51:58.557Z,28.70
2022-09-28T10:54:53.763Z,29.04
2022-09-28T10:57:37.068Z,28.85
2022-09-28T11:00:32.876Z,28.97
2022-09-28T11:03:26.118Z,28.91
2022-09-28T11:06:03.055Z,28.77
2022-09-28T11:08:52.180Z,28.69
2022-09-28T11:11:20.676Z,28.66
2022-09-28T11:14:04.016Z,28.73
2022-09-28T11:16:36.732Z,28.92
2022-09-28T11:19:20.991Z,28.70
2022-09-28T11:21:49.566Z,28.53
2022-09-28T11:24:20.568Z,28.64
2022-09-28T11:26:56.737Z,28.81
2022-09-28T11:29:45.861Z,29.00
2022-09-28T11:32:30.934Z,28.96
2022-09-28T11:35:32.322Z,28.95
2022-09-28T11:38:28.784Z,28.74
2022-09-28T11:41:58.884Z,28.89
2022-09-28T11:44:38.645Z,28.74
2022-09-28T11:47:55.430Z,28.72
2022-09-28T11:50:50.774Z,28.54
2022-09-28T11:53:41.928Z,28.33
2022-09-28T11:56:20.005Z,28.03
2022-09-28T11:58:54.052Z,27.73
2022-09-28T12:01:44.290Z,27.46
2022-09-28T12:04:53.030Z,27.28
2022-09-28T12:08:04.008Z,27.31
2022-09-28T12:11:15.853Z,27.22
2022-09-28T12:14:07.165Z,27.34
2022-09-28T12:17:07.738Z,27.49
2022-09-28T12:19:49.097Z,27.38
2022-09-28T12:22:33.276Z,27.36
2022-09-28T12:25:04.247Z,27.43
2022-09-28T12:28:07.292Z,27.44
2022-09-28T12:30:40.997Z,27.18
2022-09-28T12:33:16.101Z,27.08
2022-09-28T12:36:02.677Z,27.03
2022-09-28T12:39:15.096Z,26.98
2022-09-28T12:42:18.372Z,26.77
2022-09-28T12:45:00.397Z,26.48
2022-09-28T12:47:40.946Z,26.27
2022-09-28T12:50:56.074Z,26.07
2022-09-28T12:53:44.143Z,25.95
2022-09-28T12:59:53.188Z,25.33
2022-09-28T13:02:59.959Z,25.01
2022-09-28T13:05:58.096Z,24.65
2022-09-28T13:08:39.243Z,24.35
2022-09-28T13:11:35.386Z,24.27
2022-09-28T13:14:29.451Z,24.23
2022-09-28T13:17:00.908Z,24.26
2022-09-28T13:19:55.130Z,24.28
2022-09-28T13:22:44.135Z,24.29
2022-09-28T13:25:19.221Z,24.19
2022-09-28T13:28:03.468Z,24.05
2022-09-28T13:30:35.840Z,24.00
2022-09-28T13:33:08.857Z,23.87
2022-09-28T13:35:43.595Z,23.68
2022-09-28T13:38:16.446Z,23.56
2022-09-28T13:41:06.342Z,23.55
2022-09-28T13:44:13.898Z,23.56
2022-09-28T13:47:00.405Z,23.65
2022-09-28T13:49:45.728Z,23.67
2022-09-28T13:52:48.204Z,23.59
2022-09-28T13:55:33.122Z,23.44
2022-09-28T13:58:05.967Z,23.33
2022-09-28T14:00:57.896Z,23.27
2022-09-28T14:03:37.139Z,23.03
2022-09-28T14:06:25.694Z,22.86
2022-09-28T14:09:29.173Z,22.71
2022-09-28T14:12:24.173Z,22.66
2022-09-28T14:14:52.950Z,22.55
2022-09-28T14:17:20.952Z,22.53
2022-09-28T14:20:07.867Z,22.49
2022-09-28T14:23:00.945Z,22.46
2022-09-28T14:26:04.180Z,22.39
2022-09-28T14:41:17.652Z,22.14
2022-09-28T14:43:51.013Z,22.06
2022-09-28T14:50:38.073Z,21.82
2022-09-28T14:53:12.437Z,21.65
2022-09-28T15:04:28.218Z,21.17
2022-09-28T15:12:06.172Z,20.88
2022-09-28T15:18:54.790Z,20.65
2022-09-28T15:22:03.509Z,20.59
2022-09-28T15:28:19.441Z,20.41
2022-09-28T15:30:48.436Z,20.35
2022-09-28T15:33:50.323Z,20.28
2022-09-28T15:36:29.387Z,20.21
2022-09-28T15:39:23.611Z,20.18
2022-09-28T15:41:52.904Z,20.17
2022-09-28T16:04:05.337Z,19.78
2022-09-28T16:06:38.769Z,19.67
2022-09-28T16:09:34.578Z,19.55
2022-09-28T16:15:39.625Z,19.31
2022-09-28T16:18:24.300Z,19.23
2022-09-28T17:06:16.972Z,17.36
2022-09-28T17:13:33.880Z,17.06
2022-09-28T17:17:02.686Z,16.91
2022-09-28T17:21:04.522Z,16.75
2022-09-28T17:42:33.658Z,15.87
2022-09-28T17:45:05.817Z,15.79
2022-09-28T17:54:34.719Z,15.57
2022-09-28T17:57:42.312Z,15.50
2022-09-28T18:13:17.360Z,15.35
2022-09-28T18:19:45.440Z,15.29
2022-09-28T18:37:17.014Z,14.96
2022-09-28T18:40:58.884Z,14.88
2022-09-28T18:49:26.586Z,14.70
2022-09-28T18:52:19.109Z,14.60
2022-09-28T18:54:51.756Z,14.54
2022-09-28T18:57:55.898Z,14.50
2022-09-28T19:01:28.294Z,14.46
2022-09-28T19:04:27.924Z,14.38
2022-09-28T19:07:22.065Z,14.30
2022-09-28T19:09:50.961Z,14.24
2022-09-28T19:12:57.565Z,14.18
2022-09-28T19:28:01.576Z,13.95
2022-09-28T19:30:29.960Z,13.94
2022-09-28T19:32:58.262Z,13.92
2022-09-28T19:35:26.480Z,13.89
2022-09-28T19:37:55.948Z,13.83
2022-09-28T19:40:26.735Z,13.80
2022-09-28T19:42:55.295Z,13.75
2022-09-28T19:45:23.791Z,13.70
2022-09-28T19:47:57.297Z,13.67
2022-09-28T19:50:28.269Z,13.64
2022-09-28T19:53:01.865Z,13.61
2022-09-28T19:55:35.767Z,13.58
2022-09-28T19:58:04.242Z,13.55
2022-09-28T20:00:33.855Z,13.52
2022-09-28T20:03:04.084Z,13.49
2022-09-28T20:05:32.545Z,13.47
2022-09-28T20:12:46.619Z,13.44
2022-09-28T20:15:56.938Z,13.44
2022-09-28T20:18:45.611Z,13.45
2022-09-28T20:21:17.931Z,13.47
2022-09-28T20:23:48.303Z,13.48
2022-09-28T20:26:18.094Z,13.47
2022-09-28T20:28:46.996Z,13.45
2022-09-28T20:31:22.979Z,13.43
2022-09-28T20:33:53.524Z,13.39
2022-09-28T20:36:25.574Z,13.37
2022-09-28T20:38:55.041Z,13.36
2022-09-28T20:41:33.091Z,13.34
2022-09-28T20:44:30.705Z,13.34
2022-09-28T20:47:59.848Z,13.34
2022-09-28T20:50:35.250Z,13.35
2022-09-28T20:53:29.509Z,13.36
2022-09-28T20:56:00.310Z,13.36
2022-09-28T20:58:50.247Z,13.35
2022-09-28T21:01:45.331Z,13.34
2022-09-28T21:04:13.788Z,13.31
2022-09-28T21:06:44.486Z,13.27
2022-09-28T21:09:13.187Z,13.23
2022-09-28T21:11:44.625Z,13.17
2022-09-28T21:14:15.606Z,13.11
2022-09-28T21:17:05.471Z,13.05
2022-09-28T21:19:38.936Z,12.99
2022-09-28T21:22:08.843Z,12.92
2022-09-28T21:25:33.089Z,12.86
2022-09-28T21:29:30.525Z,12.79
2022-09-28T21:33:44.870Z,12.76
2022-09-28T21:36:54.635Z,12.74
2022-09-28T21:40:22.296Z,12.75
2022-09-28T21:43:11.301Z,12.76
2022-09-28T21:45:55.288Z,12.78
2022-09-28T21:48:37.733Z,12.81
2022-09-28T21:51:20.217Z,12.82
2022-09-28T21:54:03.946Z,12.82
2022-09-28T21:56:47.903Z,12.82
2022-09-28T21:59:31.347Z,12.81
2022-09-28T22:02:06.819Z,12.80
2022-09-28T22:04:34.980Z,12.80
2022-09-28T22:07:06.033Z,12.79
2022-09-28T22:09:36.040Z,12.77
2022-09-28T22:12:24.420Z,12.74
2022-09-28T22:14:52.480Z,12.69
2022-09-28T22:17:40.660Z,12.64
2022-09-28T22:20:09.438Z,12.60
2022-09-28T22:22:38.574Z,12.58
2022-09-28T22:25:06.891Z,12.55
2022-09-28T22:27:35.022Z,12.54
2022-09-28T22:30:06.640Z,12.52
2022-09-28T22:32:35.275Z,12.48
2022-09-28T22:35:05.003Z,12.45
2022-09-28T22:37:33.697Z,12.40
2022-09-28T22:40:02.102Z,12.36
2022-09-28T22:42:30.179Z,12.35
2022-09-28T22:44:58.253Z,12.32
2022-09-28T22:47:26.446Z,12.31
2022-09-28T22:49:54.672Z,12.28
2022-09-28T22:52:22.953Z,12.24
2022-09-28T22:54:54.440Z,12.23
2022-09-28T22:57:24.689Z,12.22
2022-09-28T22:59:52.760Z,12.22
2022-09-28T23:02:23.883Z,12.24
2022-09-28T23:04:52.051Z,12.24
2022-09-28T23:07:20.152Z,12.24
2022-09-28T23:09:48.290Z,12.24
2022-09-28T23:12:16.431Z,12.23
2022-09-28T23:14:44.669Z,12.22
2022-09-28T23:17:12.831Z,12.20
2022-09-28T23:19:41.148Z,12.19
2022-09-28T23:22:10.645Z,12.19
2022-09-28T23:24:38.762Z,12.18
2022-09-28T23:27:08.018Z,12.17
2022-09-28T23:29:36.502Z,12.17
2022-09-28T23:32:04.593Z,12.17
2022-09-28T23:34:32.729Z,12.19
2022-09-28T23:37:00.749Z,12.21
2022-09-28T23:39:28.774Z,12.21
2022-09-28T23:41:59.133Z,12.24
2022-09-28T23:44:31.786Z,12.26
2022-09-28T23:47:00.327Z,12.28
2022-09-28T23:49:29.791Z,12.31
2022-09-28T23:51:57.794Z,12.33
2022-09-28T23:54:25.888Z,12.34
2022-09-28T23:56:53.923Z,12.36
2022-09-28T23:59:21.828Z,12.39
